sensor_id;sensor_type;location;lat;lon;timestamp;P1;durP1;ratioP1;P2;durP2;ratioP2
56670;SDS011;42545;50.054;8.306;2023-08-17T00:01:20;0.10;;;0.10;;
56670;SDS011;42545;50.054;8.306;2023-08-17T00:03:47;0.20;;;0.20;;
56670;SDS011;42545;50.054;8.306;2023-08-17T00:06:14;0.20;;;0.20;;
56670;SDS011;42545;50.054;8.306;2023-08-17T00:08:41;0.10;;;0.10;;
56670;SDS011;42545;50.054;8.306;2023-08-17T00:11:07;0.10;;;0.10;;
56670;SDS011;42545;50.054;8.306;2023-08-17T00:13:34;0.15;;;0.15;;
56670;SDS011;42545;50.054;8.306;2023-08-17T00:16:06;0.10;;;0.10;;
56670;SDS011;42545;50.054;8.306;2023-08-17T00:18:34;0.10;;;0.10;;
56670;SDS011;42545;50.054;8.306;2023-08-17T00:21:01;0.10;;;0.10;;
56670;SDS011;42545;50.054;8.306;2023-08-17T00:23:28;0.10;;;0.10;;
56670;SDS011;42545;50.054;8.306;2023-08-17T00:25:57;0.10;;;0.10;;
56670;SDS011;42545;50.054;8.306;2023-08-17T00:28:24;0.10;;;0.10;;
56670;SDS011;42545;50.054;8.306;2023-08-17T00:30:51;0.10;;;0.10;;
56670;SDS011;42545;50.054;8.306;2023-08-17T00:33:18;0.15;;;0.15;;
56670;SDS011;42545;50.054;8.306;2023-08-17T00:35:46;0.10;;;0.10;;
56670;SDS011;42545;50.054;8.306;2023-08-17T00:38:13;0.10;;;0.10;;
56670;SDS011;42545;50.054;8.306;2023-08-17T00:40:40;0.20;;;0.20;;
56670;SDS011;42545;50.054;8.306;2023-08-17T00:43:07;0.20;;;0.20;;
56670;SDS011;42545;50.054;8.306;2023-08-17T00:45:34;0.10;;;0.10;;
56670;SDS011;42545;50.054;8.306;2023-08-17T00:48:01;0.20;;;0.20;;
56670;SDS011;42545;50.054;8.306;2023-08-17T00:50:30;0.10;;;0.10;;
56670;SDS011;42545;50.054;8.306;2023-08-17T00:52:58;0.10;;;0.10;;
56670;SDS011;42545;50.054;8.306;2023-08-17T00:55:26;0.10;;;0.10;;
56670;SDS011;42545;50.054;8.306;2023-08-17T00:57:53;0.20;;;0.20;;
56670;SDS011;42545;50.054;8.306;2023-08-17T01:00:22;0.10;;;0.10;;
56670;SDS011;42545;50.054;8.306;2023-08-17T01:02:51;0.10;;;0.10;;
56670;SDS011;42545;50.054;8.306;2023-08-17T01:05:19;0.10;;;0.10;;
56670;SDS011;42545;50.054;8.306;2023-08-17T01:07:47;0.20;;;0.20;;
56670;SDS011;42545;50.054;8.306;2023-08-17T01:10:15;0.20;;;0.20;;
56670;SDS011;42545;50.054;8.306;2023-08-17T01:12:44;0.20;;;0.20;;
56670;SDS011;42545;50.054;8.306;2023-08-17T01:15:17;0.20;;;0.20;;
56670;SDS011;42545;50.054;8.306;2023-08-17T01:17:51;0.20;;;0.20;;
56670;SDS011;42545;50.054;8.306;2023-08-17T01:20:23;0.20;;;0.20;;
56670;SDS011;42545;50.054;8.306;2023-08-17T01:22:51;0.10;;;0.10;;
56670;SDS011;42545;50.054;8.306;2023-08-17T01:25:24;0.20;;;0.20;;
56670;SDS011;42545;50.054;8.306;2023-08-17T01:27:51;0.20;;;0.20;;
56670;SDS011;42545;50.054;8.306;2023-08-17T01:30:18;0.20;;;0.20;;
56670;SDS011;42545;50.054;8.306;2023-08-17T01:32:48;0.20;;;0.20;;
56670;SDS011;42545;50.054;8.306;2023-08-17T01:35:25;0.20;;;0.20;;
56670;SDS011;42545;50.054;8.306;2023-08-17T01:37:58;0.20;;;0.20;;
56670;SDS011;42545;50.054;8.306;2023-08-17T01:40:31;0.10;;;0.10;;
56670;SDS011;42545;50.054;8.306;2023-08-17T01:43:00;0.10;;;0.10;;
56670;SDS011;42545;50.054;8.306;2023-08-17T01:45:46;0.20;;;0.20;;
56670;SDS011;42545;50.054;8.306;2023-08-17T01:48:14;0.20;;;0.20;;
56670;SDS011;42545;50.054;8.306;2023-08-17T01:50:40;0.20;;;0.20;;
56670;SDS011;42545;50.054;8.306;2023-08-17T01:53:08;0.20;;;0.20;;
56670;SDS011;42545;50.054;8.306;2023-08-17T01:55:38;0.10;;;0.10;;
56670;SDS011;42545;50.054;8.306;2023-08-17T01:58:05;0.20;;;0.20;;
56670;SDS011;42545;50.054;8.306;2023-08-17T02:00:34;0.10;;;0.10;;
56670;SDS011;42545;50.054;8.306;2023-08-17T02:03:00;0.10;;;0.10;;
56670;SDS011;42545;50.054;8.306;2023-08-17T02:05:28;0.10;;;0.10;;
56670;SDS011;42545;50.054;8.306;2023-08-17T02:07:54;0.20;;;0.20;;
56670;SDS011;42545;50.054;8.306;2023-08-17T02:10:21;0.20;;;0.20;;
56670;SDS011;42545;50.054;8.306;2023-08-17T02:12:49;0.10;;;0.10;;
56670;SDS011;42545;50.054;8.306;2023-08-17T02:17:45;0.10;;;0.10;;
56670;SDS011;42545;50.054;8.306;2023-08-17T02:20:11;0.10;;;0.10;;
56670;SDS011;42545;50.054;8.306;2023-08-17T02:22:39;0.20;;;0.20;;
56670;SDS011;42545;50.054;8.306;2023-08-17T02:25:07;0.10;;;0.10;;
56670;SDS011;42545;50.054;8.306;2023-08-17T02:27:34;0.10;;;0.10;;
56670;SDS011;42545;50.054;8.306;2023-08-17T02:30:03;0.20;;;0.20;;
56670;SDS011;42545;50.054;8.306;2023-08-17T02:32:30;0.20;;;0.20;;
56670;SDS011;42545;50.054;8.306;2023-08-17T02:34:57;0.10;;;0.10;;
56670;SDS011;42545;50.054;8.306;2023-08-17T02:37:23;0.20;;;0.20;;
56670;SDS011;42545;50.054;8.306;2023-08-17T02:39:50;0.10;;;0.10;;
56670;SDS011;42545;50.054;8.306;2023-08-17T02:42:17;0.10;;;0.10;;
56670;SDS011;42545;50.054;8.306;2023-08-17T02:44:44;0.20;;;0.20;;
56670;SDS011;42545;50.054;8.306;2023-08-17T02:47:12;0.20;;;0.20;;
56670;SDS011;42545;50.054;8.306;2023-08-17T02:49:39;0.10;;;0.10;;
56670;SDS011;42545;50.054;8.306;2023-08-17T02:52:06;0.10;;;0.10;;
56670;SDS011;42545;50.054;8.306;2023-08-17T02:54:33;0.10;;;0.10;;
56670;SDS011;42545;50.054;8.306;2023-08-17T02:57:04;0.10;;;0.10;;
56670;SDS011;42545;50.054;8.306;2023-08-17T02:59:31;0.10;;;0.10;;
56670;SDS011;42545;50.054;8.306;2023-08-17T03:01:58;0.10;;;0.10;;
56670;SDS011;42545;50.054;8.306;2023-08-17T03:04:26;0.10;;;0.10;;
56670;SDS011;42545;50.054;8.306;2023-08-17T03:06:55;0.20;;;0.20;;
56670;SDS011;42545;50.054;8.306;2023-08-17T03:09:21;0.17;;;0.17;;
56670;SDS011;42545;50.054;8.306;2023-08-17T03:11:48;0.17;;;0.17;;
56670;SDS011;42545;50.054;8.306;2023-08-17T03:14:15;0.10;;;0.10;;
56670;SDS011;42545;50.054;8.306;2023-08-17T03:16:43;0.20;;;0.20;;
56670;SDS011;42545;50.054;8.306;2023-08-17T03:19:10;0.10;;;0.10;;
56670;SDS011;42545;50.054;8.306;2023-08-17T03:21:38;0.17;;;0.17;;
56670;SDS011;42545;50.054;8.306;2023-08-17T03:24:06;0.10;;;0.10;;
56670;SDS011;42545;50.054;8.306;2023-08-17T03:26:33;0.10;;;0.10;;
56670;SDS011;42545;50.054;8.306;2023-08-17T03:28:59;0.10;;;0.10;;
56670;SDS011;42545;50.054;8.306;2023-08-17T03:31:26;0.10;;;0.10;;
56670;SDS011;42545;50.054;8.306;2023-08-17T03:33:53;0.20;;;0.20;;
56670;SDS011;42545;50.054;8.306;2023-08-17T03:36:20;0.10;;;0.10;;
56670;SDS011;42545;50.054;8.306;2023-08-17T03:38:49;0.10;;;0.10;;
56670;SDS011;42545;50.054;8.306;2023-08-17T03:41:16;0.20;;;0.20;;
56670;SDS011;42545;50.054;8.306;2023-08-17T03:43:43;0.20;;;0.20;;
56670;SDS011;42545;50.054;8.306;2023-08-17T03:46:10;0.17;;;0.17;;
56670;SDS011;42545;50.054;8.306;2023-08-17T03:48:36;0.10;;;0.10;;
56670;SDS011;42545;50.054;8.306;2023-08-17T03:51:05;0.20;;;0.20;;
56670;SDS011;42545;50.054;8.306;2023-08-17T03:53:32;0.10;;;0.10;;
56670;SDS011;42545;50.054;8.306;2023-08-17T03:56:00;0.10;;;0.10;;
56670;SDS011;42545;50.054;8.306;2023-08-17T03:58:27;0.20;;;0.20;;
56670;SDS011;42545;50.054;8.306;2023-08-17T04:00:58;0.20;;;0.20;;
56670;SDS011;42545;50.054;8.306;2023-08-17T04:03:25;0.10;;;0.10;;
56670;SDS011;42545;50.054;8.306;2023-08-17T04:05:52;0.20;;;0.20;;
56670;SDS011;42545;50.054;8.306;2023-08-17T04:08:19;0.10;;;0.10;;
56670;SDS011;42545;50.054;8.306;2023-08-17T04:10:45;0.13;;;0.13;;
56670;SDS011;42545;50.054;8.306;2023-08-17T04:13:13;0.10;;;0.10;;
56670;SDS011;42545;50.054;8.306;2023-08-17T04:15:40;0.20;;;0.20;;
56670;SDS011;42545;50.054;8.306;2023-08-17T04:18:07;0.10;;;0.10;;
56670;SDS011;42545;50.054;8.306;2023-08-17T04:20:34;0.10;;;0.10;;
56670;SDS011;42545;50.054;8.306;2023-08-17T04:23:00;0.10;;;0.10;;
56670;SDS011;42545;50.054;8.306;2023-08-17T04:25:28;0.20;;;0.20;;
56670;SDS011;42545;50.054;8.306;2023-08-17T04:27:55;0.10;;;0.10;;
56670;SDS011;42545;50.054;8.306;2023-08-17T04:30:23;0.20;;;0.20;;
56670;SDS011;42545;50.054;8.306;2023-08-17T04:32:51;0.20;;;0.20;;
56670;SDS011;42545;50.054;8.306;2023-08-17T04:35:18;0.20;;;0.20;;
56670;SDS011;42545;50.054;8.306;2023-08-17T04:37:45;0.10;;;0.10;;
56670;SDS011;42545;50.054;8.306;2023-08-17T04:40:12;0.20;;;0.20;;
56670;SDS011;42545;50.054;8.306;2023-08-17T04:42:39;0.20;;;0.20;;
56670;SDS011;42545;50.054;8.306;2023-08-17T04:45:06;0.10;;;0.10;;
56670;SDS011;42545;50.054;8.306;2023-08-17T04:47:35;0.10;;;0.10;;
56670;SDS011;42545;50.054;8.306;2023-08-17T04:50:01;0.10;;;0.10;;
56670;SDS011;42545;50.054;8.306;2023-08-17T04:52:29;0.10;;;0.10;;
56670;SDS011;42545;50.054;8.306;2023-08-17T04:54:55;0.10;;;0.10;;
56670;SDS011;42545;50.054;8.306;2023-08-17T04:57:22;0.10;;;0.10;;
56670;SDS011;42545;50.054;8.306;2023-08-17T04:59:49;0.10;;;0.10;;
56670;SDS011;42545;50.054;8.306;2023-08-17T05:02:16;0.10;;;0.10;;
56670;SDS011;42545;50.054;8.306;2023-08-17T05:04:45;0.10;;;0.10;;
56670;SDS011;42545;50.054;8.306;2023-08-17T05:07:13;0.10;;;0.10;;
56670;SDS011;42545;50.054;8.306;2023-08-17T05:09:39;0.10;;;0.10;;
56670;SDS011;42545;50.054;8.306;2023-08-17T05:12:06;0.20;;;0.20;;
56670;SDS011;42545;50.054;8.306;2023-08-17T05:14:35;0.10;;;0.10;;
56670;SDS011;42545;50.054;8.306;2023-08-17T05:17:02;0.10;;;0.10;;
56670;SDS011;42545;50.054;8.306;2023-08-17T05:19:28;0.10;;;0.10;;
56670;SDS011;42545;50.054;8.306;2023-08-17T05:21:59;0.20;;;0.20;;
56670;SDS011;42545;50.054;8.306;2023-08-17T05:24:25;0.17;;;0.17;;
56670;SDS011;42545;50.054;8.306;2023-08-17T05:26:53;0.10;;;0.10;;
56670;SDS011;42545;50.054;8.306;2023-08-17T05:29:20;0.10;;;0.10;;
56670;SDS011;42545;50.054;8.306;2023-08-17T05:31:47;0.17;;;0.17;;
56670;SDS011;42545;50.054;8.306;2023-08-17T05:34:14;0.10;;;0.10;;
56670;SDS011;42545;50.054;8.306;2023-08-17T05:36:41;0.10;;;0.10;;
56670;SDS011;42545;50.054;8.306;2023-08-17T05:39:09;0.10;;;0.10;;
56670;SDS011;42545;50.054;8.306;2023-08-17T05:41:36;0.20;;;0.20;;
56670;SDS011;42545;50.054;8.306;2023-08-17T05:44:03;0.15;;;0.15;;
56670;SDS011;42545;50.054;8.306;2023-08-17T05:46:31;0.10;;;0.10;;
56670;SDS011;42545;50.054;8.306;2023-08-17T05:48:58;0.20;;;0.20;;
56670;SDS011;42545;50.054;8.306;2023-08-17T05:51:26;0.20;;;0.20;;
56670;SDS011;42545;50.054;8.306;2023-08-17T05:53:53;0.10;;;0.10;;
56670;SDS011;42545;50.054;8.306;2023-08-17T05:56:21;0.20;;;0.20;;
56670;SDS011;42545;50.054;8.306;2023-08-17T05:58:47;0.20;;;0.20;;
56670;SDS011;42545;50.054;8.306;2023-08-17T06:01:14;0.10;;;0.10;;
56670;SDS011;42545;50.054;8.306;2023-08-17T06:03:41;0.10;;;0.10;;
56670;SDS011;42545;50.054;8.306;2023-08-17T06:06:09;0.10;;;0.10;;
56670;SDS011;42545;50.054;8.306;2023-08-17T06:08:35;0.20;;;0.20;;
56670;SDS011;42545;50.054;8.306;2023-08-17T06:11:05;0.20;;;0.20;;
56670;SDS011;42545;50.054;8.306;2023-08-17T06:13:33;0.15;;;0.15;;
56670;SDS011;42545;50.054;8.306;2023-08-17T06:16:00;0.20;;;0.20;;
56670;SDS011;42545;50.054;8.306;2023-08-17T06:18:27;0.20;;;0.20;;
56670;SDS011;42545;50.054;8.306;2023-08-17T06:20:55;0.20;;;0.20;;
56670;SDS011;42545;50.054;8.306;2023-08-17T06:23:23;0.10;;;0.10;;
56670;SDS011;42545;50.054;8.306;2023-08-17T06:25:50;0.10;;;0.10;;
56670;SDS011;42545;50.054;8.306;2023-08-17T06:28:19;0.20;;;0.20;;
56670;SDS011;42545;50.054;8.306;2023-08-17T06:30:48;0.10;;;0.10;;
56670;SDS011;42545;50.054;8.306;2023-08-17T06:33:18;0.10;;;0.10;;
56670;SDS011;42545;50.054;8.306;2023-08-17T06:35:45;0.10;;;0.10;;
56670;SDS011;42545;50.054;8.306;2023-08-17T06:38:12;0.20;;;0.20;;
56670;SDS011;42545;50.054;8.306;2023-08-17T06:40:39;0.20;;;0.20;;
56670;SDS011;42545;50.054;8.306;2023-08-17T06:43:06;0.10;;;0.10;;
56670;SDS011;42545;50.054;8.306;2023-08-17T06:45:32;0.20;;;0.20;;
56670;SDS011;42545;50.054;8.306;2023-08-17T06:48:01;0.20;;;0.20;;
56670;SDS011;42545;50.054;8.306;2023-08-17T06:50:28;0.20;;;0.20;;
56670;SDS011;42545;50.054;8.306;2023-08-17T06:52:54;0.20;;;0.20;;
56670;SDS011;42545;50.054;8.306;2023-08-17T06:55:21;0.20;;;0.20;;
56670;SDS011;42545;50.054;8.306;2023-08-17T06:57:49;0.20;;;0.20;;
56670;SDS011;42545;50.054;8.306;2023-08-17T07:00:16;0.20;;;0.20;;
56670;SDS011;42545;50.054;8.306;2023-08-17T07:02:45;0.20;;;0.20;;
56670;SDS011;42545;50.054;8.306;2023-08-17T07:05:13;0.10;;;0.10;;
56670;SDS011;42545;50.054;8.306;2023-08-17T07:07:40;0.10;;;0.10;;
56670;SDS011;42545;50.054;8.306;2023-08-17T07:10:08;0.20;;;0.20;;
56670;SDS011;42545;50.054;8.306;2023-08-17T07:12:36;0.20;;;0.20;;
56670;SDS011;42545;50.054;8.306;2023-08-17T07:15:03;0.10;;;0.10;;
56670;SDS011;42545;50.054;8.306;2023-08-17T07:17:31;0.10;;;0.10;;
56670;SDS011;42545;50.054;8.306;2023-08-17T07:19:59;0.20;;;0.20;;
56670;SDS011;42545;50.054;8.306;2023-08-17T07:22:27;0.20;;;0.20;;
56670;SDS011;42545;50.054;8.306;2023-08-17T07:24:54;0.20;;;0.20;;
56670;SDS011;42545;50.054;8.306;2023-08-17T07:27:21;0.20;;;0.20;;
56670;SDS011;42545;50.054;8.306;2023-08-17T07:29:48;0.13;;;0.13;;
56670;SDS011;42545;50.054;8.306;2023-08-17T07:32:15;0.20;;;0.20;;
56670;SDS011;42545;50.054;8.306;2023-08-17T07:34:42;0.20;;;0.20;;
56670;SDS011;42545;50.054;8.306;2023-08-17T07:37:09;0.20;;;0.20;;
56670;SDS011;42545;50.054;8.306;2023-08-17T07:39:38;0.20;;;0.20;;
56670;SDS011;42545;50.054;8.306;2023-08-17T07:42:04;0.20;;;0.20;;
56670;SDS011;42545;50.054;8.306;2023-08-17T07:44:32;0.20;;;0.20;;
56670;SDS011;42545;50.054;8.306;2023-08-17T07:47:07;0.15;;;0.15;;
56670;SDS011;42545;50.054;8.306;2023-08-17T07:49:33;0.20;;;0.20;;
56670;SDS011;42545;50.054;8.306;2023-08-17T07:52:00;0.20;;;0.20;;
56670;SDS011;42545;50.054;8.306;2023-08-17T07:54:28;0.20;;;0.20;;
56670;SDS011;42545;50.054;8.306;2023-08-17T07:56:58;0.20;;;0.20;;
56670;SDS011;42545;50.054;8.306;2023-08-17T07:59:25;0.20;;;0.20;;
56670;SDS011;42545;50.054;8.306;2023-08-17T08:01:52;0.20;;;0.20;;
56670;SDS011;42545;50.054;8.306;2023-08-17T08:04:20;0.20;;;0.20;;
56670;SDS011;42545;50.054;8.306;2023-08-17T08:06:46;0.20;;;0.20;;
56670;SDS011;42545;50.054;8.306;2023-08-17T08:09:13;0.10;;;0.10;;
56670;SDS011;42545;50.054;8.306;2023-08-17T08:11:40;0.20;;;0.20;;
56670;SDS011;42545;50.054;8.306;2023-08-17T08:14:10;0.20;;;0.20;;
56670;SDS011;42545;50.054;8.306;2023-08-17T08:16:36;0.15;;;0.15;;
56670;SDS011;42545;50.054;8.306;2023-08-17T08:19:03;0.20;;;0.20;;
56670;SDS011;42545;50.054;8.306;2023-08-17T08:21:31;0.20;;;0.20;;
56670;SDS011;42545;50.054;8.306;2023-08-17T08:23:58;0.10;;;0.10;;
56670;SDS011;42545;50.054;8.306;2023-08-17T08:26:25;0.10;;;0.10;;
56670;SDS011;42545;50.054;8.306;2023-08-17T08:28:52;0.20;;;0.20;;
56670;SDS011;42545;50.054;8.306;2023-08-17T08:31:22;0.20;;;0.20;;
56670;SDS011;42545;50.054;8.306;2023-08-17T08:33:49;0.20;;;0.20;;
56670;SDS011;42545;50.054;8.306;2023-08-17T08:36:19;0.20;;;0.20;;
56670;SDS011;42545;50.054;8.306;2023-08-17T08:38:45;0.20;;;0.20;;
56670;SDS011;42545;50.054;8.306;2023-08-17T08:41:14;0.20;;;0.20;;
56670;SDS011;42545;50.054;8.306;2023-08-17T08:43:44;0.20;;;0.20;;
56670;SDS011;42545;50.054;8.306;2023-08-17T08:46:17;0.20;;;0.20;;
56670;SDS011;42545;50.054;8.306;2023-08-17T08:48:53;0.20;;;0.20;;
56670;SDS011;42545;50.054;8.306;2023-08-17T08:51:23;0.20;;;0.20;;
56670;SDS011;42545;50.054;8.306;2023-08-17T08:53:56;0.20;;;0.20;;
56670;SDS011;42545;50.054;8.306;2023-08-17T08:56:28;0.20;;;0.20;;
56670;SDS011;42545;50.054;8.306;2023-08-17T09:01:25;0.20;;;0.20;;
56670;SDS011;42545;50.054;8.306;2023-08-17T09:03:57;0.20;;;0.20;;
56670;SDS011;42545;50.054;8.306;2023-08-17T09:06:26;0.20;;;0.20;;
56670;SDS011;42545;50.054;8.306;2023-08-17T09:11:26;0.20;;;0.20;;
56670;SDS011;42545;50.054;8.306;2023-08-17T09:13:53;0.20;;;0.20;;
56670;SDS011;42545;50.054;8.306;2023-08-17T09:16:27;0.20;;;0.20;;
56670;SDS011;42545;50.054;8.306;2023-08-17T09:18:57;0.20;;;0.20;;
56670;SDS011;42545;50.054;8.306;2023-08-17T09:21:25;0.20;;;0.20;;
56670;SDS011;42545;50.054;8.306;2023-08-17T09:23:52;0.20;;;0.20;;
56670;SDS011;42545;50.054;8.306;2023-08-17T09:26:19;0.20;;;0.20;;
56670;SDS011;42545;50.054;8.306;2023-08-17T09:28:47;0.20;;;0.20;;
56670;SDS011;42545;50.054;8.306;2023-08-17T09:31:14;0.40;;;0.35;;
56670;SDS011;42545;50.054;8.306;2023-08-17T09:33:41;0.20;;;0.20;;
56670;SDS011;42545;50.054;8.306;2023-08-17T09:36:09;0.20;;;0.20;;
56670;SDS011;42545;50.054;8.306;2023-08-17T09:38:39;0.30;;;0.30;;
56670;SDS011;42545;50.054;8.306;2023-08-17T09:41:10;0.30;;;0.30;;
56670;SDS011;42545;50.054;8.306;2023-08-17T09:43:38;0.30;;;0.30;;
56670;SDS011;42545;50.054;8.306;2023-08-17T09:46:05;0.30;;;0.30;;
56670;SDS011;42545;50.054;8.306;2023-08-17T09:48:32;0.30;;;0.30;;
56670;SDS011;42545;50.054;8.306;2023-08-17T09:50:59;0.30;;;0.30;;
56670;SDS011;42545;50.054;8.306;2023-08-17T09:53:28;0.25;;;0.25;;
56670;SDS011;42545;50.054;8.306;2023-08-17T09:55:55;0.35;;;0.35;;
56670;SDS011;42545;50.054;8.306;2023-08-17T09:58:23;0.40;;;0.40;;
56670;SDS011;42545;50.054;8.306;2023-08-17T10:00:50;0.30;;;0.30;;
56670;SDS011;42545;50.054;8.306;2023-08-17T10:03:17;0.30;;;0.30;;
56670;SDS011;42545;50.054;8.306;2023-08-17T10:05:46;0.63;;;0.63;;
56670;SDS011;42545;50.054;8.306;2023-08-17T10:08:19;0.60;;;0.60;;
56670;SDS011;42545;50.054;8.306;2023-08-17T10:10:48;0.90;;;0.50;;
56670;SDS011;42545;50.054;8.306;2023-08-17T10:13:16;0.45;;;0.45;;
56670;SDS011;42545;50.054;8.306;2023-08-17T10:15:55;0.70;;;0.70;;
56670;SDS011;42545;50.054;8.306;2023-08-17T10:18:35;0.50;;;0.50;;
56670;SDS011;42545;50.054;8.306;2023-08-17T10:21:06;0.63;;;0.63;;
56670;SDS011;42545;50.054;8.306;2023-08-17T10:23:45;0.50;;;0.50;;
56670;SDS011;42545;50.054;8.306;2023-08-17T10:26:13;0.57;;;0.57;;
56670;SDS011;42545;50.054;8.306;2023-08-17T10:28:47;0.60;;;0.60;;
56670;SDS011;42545;50.054;8.306;2023-08-17T10:31:20;0.73;;;0.57;;
56670;SDS011;42545;50.054;8.306;2023-08-17T10:33:47;0.80;;;0.80;;
56670;SDS011;42545;50.054;8.306;2023-08-17T10:36:25;1.20;;;1.00;;
56670;SDS011;42545;50.054;8.306;2023-08-17T10:41:51;0.63;;;0.63;;
56670;SDS011;42545;50.054;8.306;2023-08-17T10:44:23;0.70;;;0.70;;
56670;SDS011;42545;50.054;8.306;2023-08-17T10:47:19;0.70;;;0.70;;
56670;SDS011;42545;50.054;8.306;2023-08-17T10:49:50;0.95;;;0.90;;
56670;SDS011;42545;50.054;8.306;2023-08-17T10:52:25;1.10;;;1.00;;
56670;SDS011;42545;50.054;8.306;2023-08-17T10:57:42;0.65;;;0.65;;
56670;SDS011;42545;50.054;8.306;2023-08-17T11:00:13;0.60;;;0.60;;
56670;SDS011;42545;50.054;8.306;2023-08-17T11:02:54;0.90;;;0.90;;
56670;SDS011;42545;50.054;8.306;2023-08-17T11:05:36;0.60;;;0.60;;
56670;SDS011;42545;50.054;8.306;2023-08-17T11:08:09;0.70;;;0.70;;
56670;SDS011;42545;50.054;8.306;2023-08-17T11:10:44;0.80;;;0.80;;
56670;SDS011;42545;50.054;8.306;2023-08-17T11:13:34;0.80;;;0.80;;
56670;SDS011;42545;50.054;8.306;2023-08-17T11:16:09;0.70;;;0.70;;
56670;SDS011;42545;50.054;8.306;2023-08-17T11:18:51;0.80;;;0.80;;
56670;SDS011;42545;50.054;8.306;2023-08-17T11:21:26;1.10;;;1.00;;
56670;SDS011;42545;50.054;8.306;2023-08-17T11:23:58;0.80;;;0.75;;
56670;SDS011;42545;50.054;8.306;2023-08-17T11:26:27;0.88;;;0.88;;
56670;SDS011;42545;50.054;8.306;2023-08-17T11:31:46;0.90;;;0.90;;
56670;SDS011;42545;50.054;8.306;2023-08-17T11:34:21;0.88;;;0.88;;
56670;SDS011;42545;50.054;8.306;2023-08-17T11:36:50;1.00;;;0.90;;
56670;SDS011;42545;50.054;8.306;2023-08-17T11:39:26;1.50;;;0.98;;
56670;SDS011;42545;50.054;8.306;2023-08-17T11:41:57;1.00;;;1.00;;
56670;SDS011;42545;50.054;8.306;2023-08-17T11:44:28;0.90;;;0.90;;
56670;SDS011;42545;50.054;8.306;2023-08-17T11:46:55;1.00;;;1.00;;
56670;SDS011;42545;50.054;8.306;2023-08-17T11:49:24;1.10;;;1.00;;
56670;SDS011;42545;50.054;8.306;2023-08-17T11:52:00;1.00;;;1.00;;
56670;SDS011;42545;50.054;8.306;2023-08-17T11:54:37;1.00;;;1.00;;
56670;SDS011;42545;50.054;8.306;2023-08-17T11:57:36;0.90;;;0.90;;
56670;SDS011;42545;50.054;8.306;2023-08-17T12:00:09;1.13;;;1.02;;
56670;SDS011;42545;50.054;8.306;2023-08-17T12:02:56;1.13;;;1.02;;
56670;SDS011;42545;50.054;8.306;2023-08-17T12:05:26;1.48;;;1.30;;
56670;SDS011;42545;50.054;8.306;2023-08-17T12:07:54;1.00;;;1.00;;
56670;SDS011;42545;50.054;8.306;2023-08-17T12:10:21;1.30;;;1.20;;
56670;SDS011;42545;50.054;8.306;2023-08-17T12:12:48;1.00;;;1.00;;
56670;SDS011;42545;50.054;8.306;2023-08-17T12:15:20;0.93;;;0.93;;
56670;SDS011;42545;50.054;8.306;2023-08-17T12:17:47;0.90;;;0.90;;
56670;SDS011;42545;50.054;8.306;2023-08-17T12:20:18;0.90;;;0.90;;
56670;SDS011;42545;50.054;8.306;2023-08-17T12:25:15;1.15;;;1.10;;
56670;SDS011;42545;50.054;8.306;2023-08-17T12:27:44;1.15;;;1.10;;
56670;SDS011;42545;50.054;8.306;2023-08-17T12:30:14;1.27;;;1.17;;
56670;SDS011;42545;50.054;8.306;2023-08-17T12:32:55;1.20;;;1.10;;
56670;SDS011;42545;50.054;8.306;2023-08-17T12:35:21;1.30;;;1.20;;
56670;SDS011;42545;50.054;8.306;2023-08-17T12:37:49;1.25;;;1.15;;
56670;SDS011;42545;50.054;8.306;2023-08-17T12:40:18;1.33;;;1.23;;
56670;SDS011;42545;50.054;8.306;2023-08-17T12:42:45;1.27;;;1.17;;
56670;SDS011;42545;50.054;8.306;2023-08-17T12:45:12;1.40;;;1.30;;
56670;SDS011;42545;50.054;8.306;2023-08-17T12:47:38;1.10;;;1.00;;
56670;SDS011;42545;50.054;8.306;2023-08-17T12:50:07;1.30;;;1.20;;
56670;SDS011;42545;50.054;8.306;2023-08-17T12:52:34;1.75;;;1.30;;
56670;SDS011;42545;50.054;8.306;2023-08-17T12:55:02;1.10;;;1.05;;
56670;SDS011;42545;50.054;8.306;2023-08-17T12:57:30;1.60;;;1.50;;
56670;SDS011;42545;50.054;8.306;2023-08-17T12:59:57;1.30;;;1.20;;
56670;SDS011;42545;50.054;8.306;2023-08-17T13:02:24;1.30;;;1.20;;
56670;SDS011;42545;50.054;8.306;2023-08-17T13:04:51;1.15;;;1.10;;
56670;SDS011;42545;50.054;8.306;2023-08-17T13:07:19;1.30;;;1.20;;
56670;SDS011;42545;50.054;8.306;2023-08-17T13:09:46;1.08;;;1.00;;
56670;SDS011;42545;50.054;8.306;2023-08-17T13:12:13;1.00;;;1.00;;
56670;SDS011;42545;50.054;8.306;2023-08-17T13:14:40;1.23;;;1.13;;
56670;SDS011;42545;50.054;8.306;2023-08-17T13:17:07;0.82;;;0.82;;
56670;SDS011;42545;50.054;8.306;2023-08-17T13:19:34;1.17;;;1.02;;
56670;SDS011;42545;50.054;8.306;2023-08-17T13:22:00;1.33;;;1.23;;
56670;SDS011;42545;50.054;8.306;2023-08-17T13:24:30;1.35;;;1.25;;
56670;SDS011;42545;50.054;8.306;2023-08-17T13:26:57;1.10;;;1.10;;
56670;SDS011;42545;50.054;8.306;2023-08-17T13:29:24;1.30;;;1.20;;
56670;SDS011;42545;50.054;8.306;2023-08-17T13:31:50;1.63;;;1.20;;
56670;SDS011;42545;50.054;8.306;2023-08-17T13:34:17;1.20;;;1.10;;
56670;SDS011;42545;50.054;8.306;2023-08-17T13:36:44;0.90;;;0.90;;
56670;SDS011;42545;50.054;8.306;2023-08-17T13:39:10;1.45;;;1.35;;
56670;SDS011;42545;50.054;8.306;2023-08-17T13:41:38;1.00;;;1.00;;
56670;SDS011;42545;50.054;8.306;2023-08-17T13:44:07;1.30;;;1.20;;
56670;SDS011;42545;50.054;8.306;2023-08-17T13:46:34;1.40;;;1.30;;
56670;SDS011;42545;50.054;8.306;2023-08-17T13:49:01;1.30;;;1.20;;
56670;SDS011;42545;50.054;8.306;2023-08-17T13:51:28;1.50;;;1.40;;
56670;SDS011;42545;50.054;8.306;2023-08-17T13:53:55;1.33;;;1.23;;
56670;SDS011;42545;50.054;8.306;2023-08-17T13:56:22;1.60;;;1.50;;
56670;SDS011;42545;50.054;8.306;2023-08-17T13:58:50;1.75;;;1.65;;
56670;SDS011;42545;50.054;8.306;2023-08-17T14:01:17;1.65;;;1.55;;
56670;SDS011;42545;50.054;8.306;2023-08-17T14:03:44;1.50;;;1.40;;
56670;SDS011;42545;50.054;8.306;2023-08-17T14:06:11;1.70;;;1.55;;
56670;SDS011;42545;50.054;8.306;2023-08-17T14:08:38;1.80;;;1.70;;
56670;SDS011;42545;50.054;8.306;2023-08-17T14:11:05;1.70;;;1.60;;
56670;SDS011;42545;50.054;8.306;2023-08-17T14:13:33;1.70;;;1.60;;
56670;SDS011;42545;50.054;8.306;2023-08-17T14:16:02;1.75;;;1.65;;
56670;SDS011;42545;50.054;8.306;2023-08-17T14:18:30;1.70;;;1.60;;
56670;SDS011;42545;50.054;8.306;2023-08-17T14:20:57;1.60;;;1.50;;
56670;SDS011;42545;50.054;8.306;2023-08-17T14:23:24;1.60;;;1.50;;
56670;SDS011;42545;50.054;8.306;2023-08-17T14:25:51;1.92;;;1.73;;
56670;SDS011;42545;50.054;8.306;2023-08-17T14:28:17;1.67;;;1.58;;
56670;SDS011;42545;50.054;8.306;2023-08-17T14:30:45;1.80;;;1.70;;
56670;SDS011;42545;50.054;8.306;2023-08-17T14:33:13;1.77;;;1.67;;
56670;SDS011;42545;50.054;8.306;2023-08-17T14:35:40;1.52;;;1.42;;
56670;SDS011;42545;50.054;8.306;2023-08-17T14:38:07;1.58;;;1.48;;
56670;SDS011;42545;50.054;8.306;2023-08-17T14:40:34;1.92;;;1.70;;
56670;SDS011;42545;50.054;8.306;2023-08-17T14:43:01;1.65;;;1.55;;
56670;SDS011;42545;50.054;8.306;2023-08-17T14:45:28;1.75;;;1.65;;
56670;SDS011;42545;50.054;8.306;2023-08-17T14:47:54;1.70;;;1.60;;
56670;SDS011;42545;50.054;8.306;2023-08-17T14:50:24;2.08;;;1.95;;
56670;SDS011;42545;50.054;8.306;2023-08-17T14:52:51;1.90;;;1.80;;
56670;SDS011;42545;50.054;8.306;2023-08-17T14:55:18;2.42;;;2.22;;
56670;SDS011;42545;50.054;8.306;2023-08-17T14:57:44;2.20;;;2.00;;
56670;SDS011;42545;50.054;8.306;2023-08-17T15:00:11;2.40;;;2.20;;
56670;SDS011;42545;50.054;8.306;2023-08-17T15:02:39;2.22;;;2.00;;
56670;SDS011;42545;50.054;8.306;2023-08-17T15:05:06;2.40;;;2.20;;
56670;SDS011;42545;50.054;8.306;2023-08-17T15:07:34;2.25;;;2.05;;
56670;SDS011;42545;50.054;8.306;2023-08-17T15:10:01;2.10;;;2.00;;
56670;SDS011;42545;50.054;8.306;2023-08-17T15:12:28;2.30;;;2.10;;
56670;SDS011;42545;50.054;8.306;2023-08-17T15:14:54;2.15;;;1.95;;